PWSweather.com
Personal Weather Stations
Station Observations
IMAZOWIE6
WarszawaPL

WarszawaPL

Lat: 52.27957, Lon: 21.05489

Elevation: 100

Station Type: WS1080

http://stacjapogody.waw.pl/

High Low Average
Temperature 37.9°F3.3°C 34.7°F1.5°C 35.9°F2.2°C
Dew Point 28.6°F-1.9°C 16.3°F-8.7°C 24.1°F-4.4°C
Winds 2.0 mph 3.2 kmh Calm Calm Calm NCalm N
Wind Gusts 4.0 mph6.4 kmh -- 1.0 mph1.6 kmh
Humidity 69% 47% 63%
Pressure 30.11 in1019.6 mb 29.95 in1014.2 mb -
Precipitation 0.00 in0.0 mm - -
Hour Temp Dew Point Humidity Winds Wind Gusts Pressure Precip Precip Rate Daily Precip Total
12:02 AM 34.7°F1.5°C 16.3°F-8.7°C 47% Calm Calm 2.0 mph3.2 kmh 29.96 in1014.6 mb 0.00 in0.0 mm 0.00 in0.0 mm 0.00 in0.0 mm
12:17 AM 34.7°F1.5°C 16.3°F-8.7°C 47% 1.4 mph N2.3 kmh N 2.8 mph4.5 kmh 29.96 in1014.6 mb 0.00 in0.0 mm 0.00 in0.0 mm 0.00 in0.0 mm
12:32 AM 34.9°F1.6°C 17.0°F-8.3°C 48% 1.4 mph N2.3 kmh N 2.0 mph3.2 kmh 29.97 in1014.9 mb 0.00 in0.0 mm 0.00 in0.0 mm 0.00 in0.0 mm
12:47 AM 34.9°F1.6°C 17.5°F-8.1°C 49% 0.6 mph N1.0 kmh N 2.8 mph4.5 kmh 29.96 in1014.6 mb 0.00 in0.0 mm 0.00 in0.0 mm 0.00 in0.0 mm
01:02 AM 35.1°F1.7°C 17.6°F-8.0°C 49% 0.6 mph N1.0 kmh N 2.0 mph3.2 kmh 29.96 in1014.6 mb 0.00 in0.0 mm 0.00 in0.0 mm 0.00 in0.0 mm
01:17 AM 35.1°F1.7°C 18.1°F-7.7°C 50% 1.4 mph N2.3 kmh N 2.8 mph4.5 kmh 29.96 in1014.6 mb 0.00 in0.0 mm 0.00 in0.0 mm 0.00 in0.0 mm
01:32 AM 35.1°F1.7°C 18.1°F-7.7°C 50% 0.6 mph N1.0 kmh N 2.8 mph4.5 kmh 29.96 in1014.6 mb 0.00 in0.0 mm 0.00 in0.0 mm 0.00 in0.0 mm
01:47 AM 35.2°F1.8°C 18.7°F-7.4°C 51% 2.0 mph N3.2 kmh N 4.0 mph6.4 kmh 29.96 in1014.6 mb 0.00 in0.0 mm 0.00 in0.0 mm 0.00 in0.0 mm
02:02 AM 35.2°F1.8°C 18.7°F-7.4°C 51% 1.4 mph N2.3 kmh N 2.8 mph4.5 kmh 29.96 in1014.6 mb 0.00 in0.0 mm 0.00 in0.0 mm 0.00 in0.0 mm
02:17 AM 35.2°F1.8°C 18.7°F-7.4°C 51% Calm Calm 1.4 mph2.3 kmh 29.96 in1014.6 mb 0.01 in0.3 mm 0.05 in1.3 mm 0.01 in0.3 mm
02:32 AM 35.2°F1.8°C 19.2°F-7.1°C 52% 1.4 mph N2.3 kmh N 2.8 mph4.5 kmh 29.96 in1014.6 mb 0.01 in0.3 mm 0.00 in0.0 mm 0.01 in0.3 mm
02:47 AM 35.2°F1.8°C 19.6°F-6.9°C 53% 0.6 mph N1.0 kmh N 2.8 mph4.5 kmh 29.96 in1014.6 mb 0.01 in0.3 mm 0.00 in0.0 mm 0.01 in0.3 mm
03:02 AM 35.2°F1.8°C 19.6°F-6.9°C 53% 1.4 mph N2.3 kmh N 2.8 mph4.5 kmh 29.96 in1014.6 mb 0.01 in0.3 mm 0.00 in0.0 mm 0.01 in0.3 mm
03:17 AM 35.2°F1.8°C 19.6°F-6.9°C 53% 1.4 mph N2.3 kmh N 2.8 mph4.5 kmh 29.96 in1014.6 mb 0.00 in0.0 mm 0.00 in0.0 mm 0.01 in0.3 mm
03:32 AM 35.4°F1.9°C 19.8°F-6.8°C 53% Calm Calm 2.0 mph3.2 kmh 29.95 in1014.2 mb 0.00 in0.0 mm 0.00 in0.0 mm 0.01 in0.3 mm
03:47 AM 35.2°F1.8°C 20.1°F-6.6°C 54% 1.4 mph N2.3 kmh N 4.0 mph6.4 kmh 29.96 in1014.6 mb 0.00 in0.0 mm 0.00 in0.0 mm 0.01 in0.3 mm
04:02 AM 35.4°F1.9°C 20.2°F-6.6°C 54% 0.6 mph N1.0 kmh N 3.4 mph5.5 kmh 29.95 in1014.2 mb 0.00 in0.0 mm 0.00 in0.0 mm 0.01 in0.3 mm
04:17 AM 35.4°F1.9°C 20.7°F-6.3°C 55% Calm Calm 3.4 mph5.5 kmh 29.96 in1014.6 mb 0.00 in0.0 mm 0.00 in0.0 mm 0.01 in0.3 mm
04:32 AM 35.4°F1.9°C 20.7°F-6.3°C 55% 1.4 mph N2.3 kmh N 4.0 mph6.4 kmh 29.96 in1014.6 mb 0.00 in0.0 mm 0.00 in0.0 mm 0.01 in0.3 mm
04:47 AM 35.6°F2.0°C 21.3°F-5.9°C 56% Calm Calm 1.4 mph2.3 kmh 29.96 in1014.6 mb 0.00 in0.0 mm 0.00 in0.0 mm 0.01 in0.3 mm
05:02 AM 35.6°F2.0°C 21.7°F-5.7°C 57% 1.4 mph N2.3 kmh N 2.8 mph4.5 kmh 29.96 in1014.6 mb 0.00 in0.0 mm 0.00 in0.0 mm 0.01 in0.3 mm
05:17 AM 35.6°F2.0°C 21.7°F-5.7°C 57% 0.6 mph N1.0 kmh N 2.0 mph3.2 kmh 29.96 in1014.6 mb 0.00 in0.0 mm 0.00 in0.0 mm 0.01 in0.3 mm
05:32 AM 35.6°F2.0°C 22.1°F-5.5°C 58% 0.6 mph N1.0 kmh N 2.0 mph3.2 kmh 29.96 in1014.6 mb 0.00 in0.0 mm 0.00 in0.0 mm 0.01 in0.3 mm
05:47 AM 35.8°F2.1°C 22.3°F-5.4°C 58% 0.6 mph N1.0 kmh N 1.4 mph2.3 kmh 29.96 in1014.6 mb 0.00 in0.0 mm 0.00 in0.0 mm 0.01 in0.3 mm
06:02 AM 35.6°F2.0°C 22.5°F-5.3°C 59% 0.6 mph N1.0 kmh N 2.8 mph4.5 kmh 29.96 in1014.6 mb 0.00 in0.0 mm 0.00 in0.0 mm 0.01 in0.3 mm
06:17 AM 35.6°F2.0°C 22.5°F-5.3°C 59% 1.4 mph N2.3 kmh N 2.8 mph4.5 kmh 29.96 in1014.6 mb 0.00 in0.0 mm 0.00 in0.0 mm 0.01 in0.3 mm
06:32 AM 35.8°F2.1°C 23.1°F-4.9°C 60% 0.6 mph N1.0 kmh N 2.8 mph4.5 kmh 29.96 in1014.6 mb 0.00 in0.0 mm 0.00 in0.0 mm 0.01 in0.3 mm
06:47 AM 35.8°F2.1°C 23.1°F-4.9°C 60% 0.6 mph N1.0 kmh N 2.0 mph3.2 kmh 29.97 in1014.9 mb 0.00 in0.0 mm 0.00 in0.0 mm 0.01 in0.3 mm
07:02 AM 35.6°F2.0°C 22.9°F-5.1°C 60% 0.6 mph N1.0 kmh N 3.4 mph5.5 kmh 29.97 in1014.9 mb 0.00 in0.0 mm 0.00 in0.0 mm 0.01 in0.3 mm
07:17 AM 35.6°F2.0°C 23.3°F-4.8°C 61% Calm Calm 2.0 mph3.2 kmh 29.97 in1014.9 mb 0.00 in0.0 mm 0.00 in0.0 mm 0.01 in0.3 mm
07:32 AM 35.6°F2.0°C 23.3°F-4.8°C 61% 0.6 mph N1.0 kmh N 2.0 mph3.2 kmh 29.98 in1015.2 mb 0.00 in0.0 mm 0.00 in0.0 mm 0.01 in0.3 mm
07:47 AM 35.6°F2.0°C 23.3°F-4.8°C 61% 0.6 mph N1.0 kmh N 3.4 mph5.5 kmh 29.98 in1015.2 mb 0.00 in0.0 mm 0.00 in0.0 mm 0.01 in0.3 mm
08:02 AM 35.6°F2.0°C 23.7°F-4.6°C 62% 0.6 mph N1.0 kmh N 2.8 mph4.5 kmh 29.99 in1015.6 mb 0.00 in0.0 mm 0.00 in0.0 mm 0.01 in0.3 mm
08:17 AM 35.8°F2.1°C 23.9°F-4.5°C 62% 0.6 mph N1.0 kmh N 2.0 mph3.2 kmh 29.99 in1015.6 mb 0.00 in0.0 mm 0.00 in0.0 mm 0.01 in0.3 mm
08:32 AM 35.8°F2.1°C 24.3°F-4.3°C 63% Calm Calm 0.6 mph1.0 kmh 30.00 in1015.9 mb 0.00 in0.0 mm 0.00 in0.0 mm 0.01 in0.3 mm
08:47 AM 36.0°F2.2°C 24.8°F-4.0°C 64% Calm Calm 1.4 mph2.3 kmh 30.00 in1015.9 mb 0.00 in0.0 mm 0.00 in0.0 mm 0.01 in0.3 mm
09:02 AM 36.1°F2.3°C 25.0°F-3.9°C 64% Calm Calm 2.0 mph3.2 kmh 30.01 in1016.3 mb 0.00 in0.0 mm 0.00 in0.0 mm 0.01 in0.3 mm
09:17 AM 36.1°F2.3°C 25.4°F-3.7°C 65% 0.6 mph N1.0 kmh N 1.4 mph2.3 kmh 30.01 in1016.3 mb 0.00 in0.0 mm 0.00 in0.0 mm 0.01 in0.3 mm
09:32 AM 36.1°F2.3°C 25.4°F-3.7°C 65% Calm Calm 2.8 mph4.5 kmh 30.01 in1016.3 mb 0.00 in0.0 mm 0.00 in0.0 mm 0.01 in0.3 mm
09:47 AM 36.3°F2.4°C 25.9°F-3.4°C 66% Calm Calm 0.6 mph1.0 kmh 30.02 in1016.6 mb 0.00 in0.0 mm 0.00 in0.0 mm 0.01 in0.3 mm
10:02 AM 36.9°F2.7°C 26.4°F-3.1°C 66% Calm Calm 1.4 mph2.3 kmh 30.02 in1016.6 mb 0.00 in0.0 mm 0.00 in0.0 mm 0.01 in0.3 mm
10:17 AM 36.9°F2.7°C 26.8°F-2.9°C 67% Calm Calm 1.4 mph2.3 kmh 30.03 in1016.9 mb 0.00 in0.0 mm 0.00 in0.0 mm 0.01 in0.3 mm
10:32 AM 36.7°F2.6°C 26.6°F-3.0°C 67% Calm Calm 0.6 mph1.0 kmh 30.03 in1016.9 mb 0.00 in0.0 mm 0.00 in0.0 mm 0.01 in0.3 mm
10:47 AM 36.9°F2.7°C 27.2°F-2.7°C 68% Calm Calm 2.0 mph3.2 kmh 30.03 in1016.9 mb 0.00 in0.0 mm 0.00 in0.0 mm 0.01 in0.3 mm
11:02 AM 37.2°F2.9°C 27.5°F-2.5°C 68% Calm Calm 0.6 mph1.0 kmh 30.02 in1016.6 mb 0.00 in0.0 mm 0.00 in0.0 mm 0.01 in0.3 mm
11:17 AM 37.4°F3.0°C 27.7°F-2.4°C 68% Calm Calm 2.0 mph3.2 kmh 30.03 in1016.9 mb 0.00 in0.0 mm 0.00 in0.0 mm 0.01 in0.3 mm
11:32 AM 37.6°F3.1°C 28.2°F-2.1°C 69% Calm Calm -- 30.02 in1016.6 mb 0.00 in0.0 mm 0.00 in0.0 mm 0.01 in0.3 mm
11:47 AM 37.6°F3.1°C 28.2°F-2.1°C 69% Calm Calm 0.6 mph1.0 kmh 30.02 in1016.6 mb 0.00 in0.0 mm 0.00 in0.0 mm 0.01 in0.3 mm
12:02 PM 37.6°F3.1°C 28.2°F-2.1°C 69% Calm Calm 0.6 mph1.0 kmh 30.02 in1016.6 mb 0.00 in0.0 mm 0.00 in0.0 mm 0.01 in0.3 mm
12:17 PM 37.6°F3.1°C 28.2°F-2.1°C 69% Calm Calm 0.6 mph1.0 kmh 30.02 in1016.6 mb 0.00 in0.0 mm 0.00 in0.0 mm 0.01 in0.3 mm
12:32 PM 37.9°F3.3°C 28.6°F-1.9°C 69% Calm Calm 0.6 mph1.0 kmh 30.02 in1016.6 mb 0.00 in0.0 mm 0.00 in0.0 mm 0.01 in0.3 mm
12:47 PM 37.4°F3.0°C 28.0°F-2.2°C 69% Calm Calm 1.4 mph2.3 kmh 30.02 in1016.6 mb 0.00 in0.0 mm 0.00 in0.0 mm 0.01 in0.3 mm
01:02 PM 37.8°F3.2°C 28.4°F-2.0°C 69% Calm Calm -- 30.02 in1016.6 mb 0.00 in0.0 mm 0.00 in0.0 mm 0.01 in0.3 mm
01:17 PM 37.9°F3.3°C 28.6°F-1.9°C 69% Calm Calm 0.6 mph1.0 kmh 30.02 in1016.6 mb 0.00 in0.0 mm 0.00 in0.0 mm 0.01 in0.3 mm
01:32 PM 37.9°F3.3°C 28.6°F-1.9°C 69% Calm Calm 0.6 mph1.0 kmh 30.02 in1016.6 mb 0.00 in0.0 mm 0.00 in0.0 mm 0.01 in0.3 mm
01:47 PM 37.6°F3.1°C 28.2°F-2.1°C 69% Calm Calm 0.6 mph1.0 kmh 30.01 in1016.3 mb 0.00 in0.0 mm 0.00 in0.0 mm 0.01 in0.3 mm
02:02 PM 37.4°F3.0°C 28.0°F-2.2°C 69% Calm Calm 1.4 mph2.3 kmh 30.02 in1016.6 mb 0.00 in0.0 mm 0.00 in0.0 mm 0.01 in0.3 mm
02:17 PM 37.2°F2.9°C 27.9°F-2.3°C 69% Calm Calm -- 30.03 in1016.9 mb 0.00 in0.0 mm 0.00 in0.0 mm 0.01 in0.3 mm
02:32 PM 37.4°F3.0°C 27.7°F-2.4°C 68% Calm Calm -- 30.03 in1016.9 mb 0.00 in0.0 mm 0.00 in0.0 mm 0.01 in0.3 mm
02:47 PM 37.2°F2.9°C 27.5°F-2.5°C 68% Calm Calm 0.6 mph1.0 kmh 30.03 in1016.9 mb 0.00 in0.0 mm 0.00 in0.0 mm 0.01 in0.3 mm
03:02 PM 36.9°F2.7°C 27.2°F-2.7°C 68% Calm Calm -- 30.03 in1016.9 mb 0.00 in0.0 mm 0.00 in0.0 mm 0.01 in0.3 mm
03:17 PM 36.7°F2.6°C 26.6°F-3.0°C 67% Calm Calm -- 30.03 in1016.9 mb 0.00 in0.0 mm 0.00 in0.0 mm 0.01 in0.3 mm
03:32 PM 36.3°F2.4°C 26.3°F-3.2°C 67% Calm Calm -- 30.03 in1016.9 mb 0.00 in0.0 mm 0.00 in0.0 mm 0.01 in0.3 mm
03:47 PM 36.3°F2.4°C 26.3°F-3.2°C 67% Calm Calm -- 30.04 in1017.3 mb 0.00 in0.0 mm 0.00 in0.0 mm 0.01 in0.3 mm
04:02 PM 36.3°F2.4°C 26.3°F-3.2°C 67% Calm Calm -- 30.04 in1017.3 mb 0.00 in0.0 mm 0.00 in0.0 mm 0.01 in0.3 mm
04:17 PM 36.7°F2.6°C 26.6°F-3.0°C 67% Calm Calm 0.6 mph1.0 kmh 30.04 in1017.3 mb 0.00 in0.0 mm 0.00 in0.0 mm 0.01 in0.3 mm
04:32 PM 36.3°F2.4°C 26.3°F-3.2°C 67% Calm Calm -- 30.04 in1017.3 mb 0.00 in0.0 mm 0.00 in0.0 mm 0.01 in0.3 mm
04:47 PM 36.1°F2.3°C 25.7°F-3.5°C 66% Calm Calm 0.6 mph1.0 kmh 30.04 in1017.3 mb 0.00 in0.0 mm 0.00 in0.0 mm 0.01 in0.3 mm
05:02 PM 36.1°F2.3°C 25.7°F-3.5°C 66% Calm Calm -- 30.05 in1017.6 mb 0.00 in0.0 mm 0.00 in0.0 mm 0.01 in0.3 mm
05:17 PM 35.8°F2.1°C 25.4°F-3.7°C 66% Calm Calm -- 30.05 in1017.6 mb 0.00 in0.0 mm 0.00 in0.0 mm 0.01 in0.3 mm
05:32 PM 35.8°F2.1°C 25.4°F-3.7°C 66% Calm Calm -- 30.05 in1017.6 mb 0.00 in0.0 mm 0.00 in0.0 mm 0.01 in0.3 mm
05:47 PM 35.6°F2.0°C 25.2°F-3.8°C 66% Calm Calm 0.6 mph1.0 kmh 30.06 in1017.9 mb 0.00 in0.0 mm 0.00 in0.0 mm 0.01 in0.3 mm
06:02 PM 35.6°F2.0°C 25.2°F-3.8°C 66% Calm Calm 0.6 mph1.0 kmh 30.05 in1017.6 mb 0.00 in0.0 mm 0.00 in0.0 mm 0.01 in0.3 mm
06:17 PM 35.6°F2.0°C 25.2°F-3.8°C 66% Calm Calm -- 30.05 in1017.6 mb 0.00 in0.0 mm 0.00 in0.0 mm 0.01 in0.3 mm
06:32 PM 35.4°F1.9°C 25.1°F-3.8°C 66% Calm Calm 0.6 mph1.0 kmh 30.06 in1017.9 mb 0.00 in0.0 mm 0.00 in0.0 mm 0.01 in0.3 mm
06:47 PM 35.4°F1.9°C 25.1°F-3.8°C 66% Calm Calm -- 30.06 in1017.9 mb 0.00 in0.0 mm 0.00 in0.0 mm 0.01 in0.3 mm
07:02 PM 35.6°F2.0°C 25.2°F-3.8°C 66% Calm Calm 2.0 mph3.2 kmh 30.06 in1017.9 mb 0.00 in0.0 mm 0.00 in0.0 mm 0.01 in0.3 mm
07:17 PM 35.6°F2.0°C 25.2°F-3.8°C 66% Calm Calm -- 30.07 in1018.3 mb 0.00 in0.0 mm 0.00 in0.0 mm 0.01 in0.3 mm
07:32 PM 35.4°F1.9°C 25.1°F-3.8°C 66% Calm Calm 1.4 mph2.3 kmh 30.07 in1018.3 mb 0.00 in0.0 mm 0.00 in0.0 mm 0.01 in0.3 mm
07:47 PM 35.2°F1.8°C 24.9°F-3.9°C 66% Calm Calm 2.8 mph4.5 kmh 30.07 in1018.3 mb 0.00 in0.0 mm 0.00 in0.0 mm 0.01 in0.3 mm
08:02 PM 35.2°F1.8°C 24.9°F-3.9°C 66% Calm Calm -- 30.07 in1018.3 mb 0.00 in0.0 mm 0.00 in0.0 mm 0.01 in0.3 mm
08:17 PM 35.1°F1.7°C 24.7°F-4.1°C 66% Calm Calm -- 30.08 in1018.6 mb 0.00 in0.0 mm 0.00 in0.0 mm 0.01 in0.3 mm
08:32 PM 35.1°F1.7°C 24.7°F-4.1°C 66% Calm Calm -- 30.09 in1019.0 mb 0.00 in0.0 mm 0.00 in0.0 mm 0.01 in0.3 mm
08:47 PM 34.9°F1.6°C 24.5°F-4.2°C 66% Calm Calm -- 30.09 in1019.0 mb 0.00 in0.0 mm 0.00 in0.0 mm 0.01 in0.3 mm
09:02 PM 34.9°F1.6°C 24.5°F-4.2°C 66% Calm Calm 0.6 mph1.0 kmh 30.09 in1019.0 mb 0.00 in0.0 mm 0.00 in0.0 mm 0.01 in0.3 mm
09:17 PM 34.9°F1.6°C 24.5°F-4.2°C 66% Calm Calm 0.6 mph1.0 kmh 30.09 in1019.0 mb 0.00 in0.0 mm 0.00 in0.0 mm 0.01 in0.3 mm
09:32 PM 34.9°F1.6°C 24.5°F-4.2°C 66% Calm Calm -- 30.10 in1019.3 mb 0.00 in0.0 mm 0.00 in0.0 mm 0.01 in0.3 mm
09:47 PM 34.9°F1.6°C 24.5°F-4.2°C 66% Calm Calm 1.4 mph2.3 kmh 30.10 in1019.3 mb 0.00 in0.0 mm 0.00 in0.0 mm 0.01 in0.3 mm
10:02 PM 34.9°F1.6°C 24.5°F-4.2°C 66% Calm Calm 2.0 mph3.2 kmh 30.10 in1019.3 mb 0.00 in0.0 mm 0.00 in0.0 mm 0.01 in0.3 mm
10:17 PM 35.1°F1.7°C 24.7°F-4.1°C 66% Calm Calm 0.6 mph1.0 kmh 30.10 in1019.3 mb 0.00 in0.0 mm 0.00 in0.0 mm 0.01 in0.3 mm
10:32 PM 34.9°F1.6°C 24.5°F-4.2°C 66% Calm Calm -- 30.10 in1019.3 mb 0.00 in0.0 mm 0.00 in0.0 mm 0.01 in0.3 mm
10:47 PM 34.9°F1.6°C 24.9°F-3.9°C 67% Calm Calm 0.6 mph1.0 kmh 30.11 in1019.6 mb 0.00 in0.0 mm 0.00 in0.0 mm 0.01 in0.3 mm
11:02 PM 35.1°F1.7°C 25.1°F-3.8°C 67% Calm Calm 0.6 mph1.0 kmh 30.11 in1019.6 mb 0.00 in0.0 mm 0.00 in0.0 mm 0.01 in0.3 mm
11:17 PM 35.4°F1.9°C 25.4°F-3.7°C 67% Calm Calm -- 30.11 in1019.6 mb 0.00 in0.0 mm 0.00 in0.0 mm 0.01 in0.3 mm
11:32 PM 35.6°F2.0°C 25.6°F-3.6°C 67% Calm Calm -- 30.11 in1019.6 mb 0.00 in0.0 mm 0.00 in0.0 mm 0.01 in0.3 mm
11:47 PM 35.4°F1.9°C 25.4°F-3.7°C 67% Calm Calm 2.0 mph3.2 kmh 30.10 in1019.3 mb 0.00 in0.0 mm 0.00 in0.0 mm 0.01 in0.3 mm